sensor_id;sensor_type;location;lat;lon;timestamp;temperature;humidity
11532;DHT22;5822;51.000;5.874;2022-11-20T00:01:14;7.90;99.90
11532;DHT22;5822;51.000;5.874;2022-11-20T00:03:40;7.90;99.90
11532;DHT22;5822;51.000;5.874;2022-11-20T00:06:08;7.80;99.90
11532;DHT22;5822;51.000;5.874;2022-11-20T00:08:34;7.90;99.90
11532;DHT22;5822;51.000;5.874;2022-11-20T00:11:10;7.90;99.90
11532;DHT22;5822;51.000;5.874;2022-11-20T00:13:36;7.90;99.90
11532;DHT22;5822;51.000;5.874;2022-11-20T00:16:04;7.80;99.90
11532;DHT22;5822;51.000;5.874;2022-11-20T00:18:30;7.80;99.90
11532;DHT22;5822;51.000;5.874;2022-11-20T00:21:07;7.90;99.90
11532;DHT22;5822;51.000;5.874;2022-11-20T00:23:34;7.90;99.90
11532;DHT22;5822;51.000;5.874;2022-11-20T00:26:05;7.90;99.90
11532;DHT22;5822;51.000;5.874;2022-11-20T00:28:30;8.00;99.90
11532;DHT22;5822;51.000;5.874;2022-11-20T00:31:04;8.00;99.90
11532;DHT22;5822;51.000;5.874;2022-11-20T00:33:30;8.00;99.90
11532;DHT22;5822;51.000;5.874;2022-11-20T00:36:04;8.10;99.90
11532;DHT22;5822;51.000;5.874;2022-11-20T00:38:31;8.00;99.90
11532;DHT22;5822;51.000;5.874;2022-11-20T00:41:01;8.10;99.90
11532;DHT22;5822;51.000;5.874;2022-11-20T00:43:27;8.10;99.90
11532;DHT22;5822;51.000;5.874;2022-11-20T00:46:10;8.00;99.90
11532;DHT22;5822;51.000;5.874;2022-11-20T00:48:37;7.90;99.90
11532;DHT22;5822;51.000;5.874;2022-11-20T00:51:03;7.90;99.90
11532;DHT22;5822;51.000;5.874;2022-11-20T00:53:29;8.00;99.90
11532;DHT22;5822;51.000;5.874;2022-11-20T00:56:03;8.10;99.90
11532;DHT22;5822;51.000;5.874;2022-11-20T00:58:31;8.10;99.90
11532;DHT22;5822;51.000;5.874;2022-11-20T01:01:06;8.00;99.90
11532;DHT22;5822;51.000;5.874;2022-11-20T01:03:33;7.90;99.90
11532;DHT22;5822;51.000;5.874;2022-11-20T01:06:01;7.80;99.90
11532;DHT22;5822;51.000;5.874;2022-11-20T01:08:30;7.80;99.90
11532;DHT22;5822;51.000;5.874;2022-11-20T01:11:05;7.80;99.90
11532;DHT22;5822;51.000;5.874;2022-11-20T01:13:31;7.70;99.90
11532;DHT22;5822;51.000;5.874;2022-11-20T01:18:51;7.70;99.90
11532;DHT22;5822;51.000;5.874;2022-11-20T01:21:26;7.70;99.90
11532;DHT22;5822;51.000;5.874;2022-11-20T01:23:52;7.60;99.90
11532;DHT22;5822;51.000;5.874;2022-11-20T01:26:21;7.80;99.90
11532;DHT22;5822;51.000;5.874;2022-11-20T01:28:47;7.80;99.90
11532;DHT22;5822;51.000;5.874;2022-11-20T01:31:19;7.80;99.90
11532;DHT22;5822;51.000;5.874;2022-11-20T01:33:46;7.90;99.90
11532;DHT22;5822;51.000;5.874;2022-11-20T01:36:13;8.00;99.90
11532;DHT22;5822;51.000;5.874;2022-11-20T01:38:39;7.90;99.90
11532;DHT22;5822;51.000;5.874;2022-11-20T01:41:05;7.80;99.90
11532;DHT22;5822;51.000;5.874;2022-11-20T01:43:31;7.70;99.90
11532;DHT22;5822;51.000;5.874;2022-11-20T01:46:12;7.70;99.90
11532;DHT22;5822;51.000;5.874;2022-11-20T01:48:46;7.70;99.90
11532;DHT22;5822;51.000;5.874;2022-11-20T01:51:28;7.80;99.90
11532;DHT22;5822;51.000;5.874;2022-11-20T01:53:57;7.70;99.90
11532;DHT22;5822;51.000;5.874;2022-11-20T01:56:25;7.70;99.90
11532;DHT22;5822;51.000;5.874;2022-11-20T01:58:56;7.70;99.90
11532;DHT22;5822;51.000;5.874;2022-11-20T02:01:23;7.60;99.90
11532;DHT22;5822;51.000;5.874;2022-11-20T02:03:50;7.70;99.90
11532;DHT22;5822;51.000;5.874;2022-11-20T02:08:47;7.80;99.90
11532;DHT22;5822;51.000;5.874;2022-11-20T02:11:13;7.90;99.90
11532;DHT22;5822;51.000;5.874;2022-11-20T02:13:39;8.00;99.90
11532;DHT22;5822;51.000;5.874;2022-11-20T02:16:21;7.90;99.90
11532;DHT22;5822;51.000;5.874;2022-11-20T02:18:48;7.70;99.90
11532;DHT22;5822;51.000;5.874;2022-11-20T02:21:25;7.80;99.90
11532;DHT22;5822;51.000;5.874;2022-11-20T02:26:34;8.00;99.90
11532;DHT22;5822;51.000;5.874;2022-11-20T02:29:02;8.00;99.90
11532;DHT22;5822;51.000;5.874;2022-11-20T02:31:33;8.00;99.90
11532;DHT22;5822;51.000;5.874;2022-11-20T02:33:59;8.10;99.90
11532;DHT22;5822;51.000;5.874;2022-11-20T02:36:27;8.00;99.90
11532;DHT22;5822;51.000;5.874;2022-11-20T02:38:53;8.10;99.90
11532;DHT22;5822;51.000;5.874;2022-11-20T02:41:19;8.00;99.90
11532;DHT22;5822;51.000;5.874;2022-11-20T02:43:45;8.00;99.90
11532;DHT22;5822;51.000;5.874;2022-11-20T02:46:10;8.00;99.90
11532;DHT22;5822;51.000;5.874;2022-11-20T02:48:36;7.90;99.90
11532;DHT22;5822;51.000;5.874;2022-11-20T02:51:02;7.90;99.90
11532;DHT22;5822;51.000;5.874;2022-11-20T02:53:27;7.90;99.90
11532;DHT22;5822;51.000;5.874;2022-11-20T02:55:53;7.90;99.90
11532;DHT22;5822;51.000;5.874;2022-11-20T02:58:18;8.00;99.90
11532;DHT22;5822;51.000;5.874;2022-11-20T03:00:44;8.00;99.90
11532;DHT22;5822;51.000;5.874;2022-11-20T03:03:10;8.00;99.90
11532;DHT22;5822;51.000;5.874;2022-11-20T03:05:35;8.10;99.90
11532;DHT22;5822;51.000;5.874;2022-11-20T03:08:01;8.10;99.90
11532;DHT22;5822;51.000;5.874;2022-11-20T03:10:27;8.10;99.90
11532;DHT22;5822;51.000;5.874;2022-11-20T03:12:54;8.10;99.90
11532;DHT22;5822;51.000;5.874;2022-11-20T03:15:21;8.20;99.90
11532;DHT22;5822;51.000;5.874;2022-11-20T03:17:47;8.10;99.90
11532;DHT22;5822;51.000;5.874;2022-11-20T03:20:12;8.20;99.90
11532;DHT22;5822;51.000;5.874;2022-11-20T03:22:40;8.10;99.90
11532;DHT22;5822;51.000;5.874;2022-11-20T03:25:06;8.00;99.90
11532;DHT22;5822;51.000;5.874;2022-11-20T03:27:35;8.00;99.90
11532;DHT22;5822;51.000;5.874;2022-11-20T03:30:01;8.00;99.90
11532;DHT22;5822;51.000;5.874;2022-11-20T03:32:26;8.00;99.90
11532;DHT22;5822;51.000;5.874;2022-11-20T03:34:52;8.00;99.90
11532;DHT22;5822;51.000;5.874;2022-11-20T03:37:18;7.90;99.90
11532;DHT22;5822;51.000;5.874;2022-11-20T03:39:43;7.90;99.90
11532;DHT22;5822;51.000;5.874;2022-11-20T03:42:09;8.00;99.90
11532;DHT22;5822;51.000;5.874;2022-11-20T03:44:55;8.00;99.90
11532;DHT22;5822;51.000;5.874;2022-11-20T03:47:20;7.90;99.90
11532;DHT22;5822;51.000;5.874;2022-11-20T03:49:46;7.90;99.90
11532;DHT22;5822;51.000;5.874;2022-11-20T03:52:12;7.90;99.90
11532;DHT22;5822;51.000;5.874;2022-11-20T03:54:37;8.00;99.90
11532;DHT22;5822;51.000;5.874;2022-11-20T03:57:03;8.00;99.90
11532;DHT22;5822;51.000;5.874;2022-11-20T03:59:28;7.80;99.90
11532;DHT22;5822;51.000;5.874;2022-11-20T04:01:54;7.90;99.90
11532;DHT22;5822;51.000;5.874;2022-11-20T04:04:20;7.80;99.90
11532;DHT22;5822;51.000;5.874;2022-11-20T04:06:45;7.90;99.90
11532;DHT22;5822;51.000;5.874;2022-11-20T04:09:11;7.90;99.90
11532;DHT22;5822;51.000;5.874;2022-11-20T04:11:39;7.80;99.90
11532;DHT22;5822;51.000;5.874;2022-11-20T04:14:06;7.80;99.90
11532;DHT22;5822;51.000;5.874;2022-11-20T04:16:34;7.80;99.90
11532;DHT22;5822;51.000;5.874;2022-11-20T04:19:02;7.80;99.90
11532;DHT22;5822;51.000;5.874;2022-11-20T04:21:28;7.80;99.90
11532;DHT22;5822;51.000;5.874;2022-11-20T04:23:54;7.70;99.90
11532;DHT22;5822;51.000;5.874;2022-11-20T04:26:21;7.80;99.90
11532;DHT22;5822;51.000;5.874;2022-11-20T04:28:47;7.80;99.90
11532;DHT22;5822;51.000;5.874;2022-11-20T04:31:33;7.80;99.90
11532;DHT22;5822;51.000;5.874;2022-11-20T04:34:00;7.80;99.90
11532;DHT22;5822;51.000;5.874;2022-11-20T04:36:28;7.80;99.90
11532;DHT22;5822;51.000;5.874;2022-11-20T04:38:56;7.80;99.90
11532;DHT22;5822;51.000;5.874;2022-11-20T04:41:23;7.90;99.90
11532;DHT22;5822;51.000;5.874;2022-11-20T04:43:51;7.90;99.90
11532;DHT22;5822;51.000;5.874;2022-11-20T04:46:18;7.90;99.90
11532;DHT22;5822;51.000;5.874;2022-11-20T04:48:44;7.90;99.90
11532;DHT22;5822;51.000;5.874;2022-11-20T04:51:10;7.80;99.90
11532;DHT22;5822;51.000;5.874;2022-11-20T04:53:36;7.80;99.90
11532;DHT22;5822;51.000;5.874;2022-11-20T04:56:07;7.80;99.90
11532;DHT22;5822;51.000;5.874;2022-11-20T04:58:33;7.80;99.90
11532;DHT22;5822;51.000;5.874;2022-11-20T05:01:03;7.80;99.90
11532;DHT22;5822;51.000;5.874;2022-11-20T05:03:29;7.70;99.90
11532;DHT22;5822;51.000;5.874;2022-11-20T05:05:55;7.70;99.90
11532;DHT22;5822;51.000;5.874;2022-11-20T05:08:21;7.80;99.90
11532;DHT22;5822;51.000;5.874;2022-11-20T05:10:46;7.80;99.90
11532;DHT22;5822;51.000;5.874;2022-11-20T05:13:12;7.80;99.90
11532;DHT22;5822;51.000;5.874;2022-11-20T05:15:37;7.80;99.90
11532;DHT22;5822;51.000;5.874;2022-11-20T05:18:03;7.80;99.90
11532;DHT22;5822;51.000;5.874;2022-11-20T05:20:29;7.70;99.90
11532;DHT22;5822;51.000;5.874;2022-11-20T05:22:57;7.60;99.90
11532;DHT22;5822;51.000;5.874;2022-11-20T05:25:23;7.40;99.90
11532;DHT22;5822;51.000;5.874;2022-11-20T05:27:49;7.30;99.90
11532;DHT22;5822;51.000;5.874;2022-11-20T05:30:14;7.60;99.90
11532;DHT22;5822;51.000;5.874;2022-11-20T05:32:40;7.60;99.90
11532;DHT22;5822;51.000;5.874;2022-11-20T05:35:06;7.80;99.90
11532;DHT22;5822;51.000;5.874;2022-11-20T05:37:31;7.70;99.90
11532;DHT22;5822;51.000;5.874;2022-11-20T05:39:57;7.60;99.90
11532;DHT22;5822;51.000;5.874;2022-11-20T05:42:23;7.70;99.90
11532;DHT22;5822;51.000;5.874;2022-11-20T05:44:59;7.60;99.90
11532;DHT22;5822;51.000;5.874;2022-11-20T05:47:26;7.50;99.90
11532;DHT22;5822;51.000;5.874;2022-11-20T05:49:52;7.50;99.90
11532;DHT22;5822;51.000;5.874;2022-11-20T05:52:18;7.40;99.90
11532;DHT22;5822;51.000;5.874;2022-11-20T05:54:44;7.40;99.90
11532;DHT22;5822;51.000;5.874;2022-11-20T05:57:10;7.70;99.90
11532;DHT22;5822;51.000;5.874;2022-11-20T05:59:35;7.80;99.90
11532;DHT22;5822;51.000;5.874;2022-11-20T06:02:01;7.90;99.90
11532;DHT22;5822;51.000;5.874;2022-11-20T06:04:26;7.90;99.90
11532;DHT22;5822;51.000;5.874;2022-11-20T06:06:52;8.00;99.90
11532;DHT22;5822;51.000;5.874;2022-11-20T06:09:18;8.00;99.90
11532;DHT22;5822;51.000;5.874;2022-11-20T06:11:43;8.10;99.90
11532;DHT22;5822;51.000;5.874;2022-11-20T06:14:09;8.10;99.90
11532;DHT22;5822;51.000;5.874;2022-11-20T06:16:34;8.10;99.90
11532;DHT22;5822;51.000;5.874;2022-11-20T06:19:00;8.20;99.90
11532;DHT22;5822;51.000;5.874;2022-11-20T06:21:25;8.20;99.90
11532;DHT22;5822;51.000;5.874;2022-11-20T06:23:52;8.20;99.90
11532;DHT22;5822;51.000;5.874;2022-11-20T06:26:24;8.20;99.90
11532;DHT22;5822;51.000;5.874;2022-11-20T06:28:51;8.10;99.90
11532;DHT22;5822;51.000;5.874;2022-11-20T06:31:19;8.10;99.90
11532;DHT22;5822;51.000;5.874;2022-11-20T06:33:46;8.10;99.90
11532;DHT22;5822;51.000;5.874;2022-11-20T06:36:13;8.10;99.90
11532;DHT22;5822;51.000;5.874;2022-11-20T06:38:39;8.10;99.90
11532;DHT22;5822;51.000;5.874;2022-11-20T06:41:07;8.20;99.90
11532;DHT22;5822;51.000;5.874;2022-11-20T06:43:35;8.10;99.90
11532;DHT22;5822;51.000;5.874;2022-11-20T06:46:00;8.10;99.90
11532;DHT22;5822;51.000;5.874;2022-11-20T06:48:27;8.20;99.90
11532;DHT22;5822;51.000;5.874;2022-11-20T06:50:53;8.20;99.90
11532;DHT22;5822;51.000;5.874;2022-11-20T06:53:18;8.20;99.90
11532;DHT22;5822;51.000;5.874;2022-11-20T06:55:45;8.10;99.90
11532;DHT22;5822;51.000;5.874;2022-11-20T06:58:12;8.10;99.90
11532;DHT22;5822;51.000;5.874;2022-11-20T07:00:38;8.20;99.90
11532;DHT22;5822;51.000;5.874;2022-11-20T07:03:05;8.30;99.90
11532;DHT22;5822;51.000;5.874;2022-11-20T07:05:30;8.30;99.90
11532;DHT22;5822;51.000;5.874;2022-11-20T07:07:57;8.30;99.90
11532;DHT22;5822;51.000;5.874;2022-11-20T07:10:23;8.30;99.90
11532;DHT22;5822;51.000;5.874;2022-11-20T07:12:52;8.30;99.90
11532;DHT22;5822;51.000;5.874;2022-11-20T07:15:19;8.30;99.90
11532;DHT22;5822;51.000;5.874;2022-11-20T07:17:45;8.30;99.90
11532;DHT22;5822;51.000;5.874;2022-11-20T07:20:11;8.30;99.90
11532;DHT22;5822;51.000;5.874;2022-11-20T07:22:37;8.30;99.90
11532;DHT22;5822;51.000;5.874;2022-11-20T07:25:03;8.30;99.90
11532;DHT22;5822;51.000;5.874;2022-11-20T07:27:29;8.30;99.90
11532;DHT22;5822;51.000;5.874;2022-11-20T07:29:55;8.40;99.90
11532;DHT22;5822;51.000;5.874;2022-11-20T07:32:21;8.40;99.90
11532;DHT22;5822;51.000;5.874;2022-11-20T07:34:47;8.40;99.90
11532;DHT22;5822;51.000;5.874;2022-11-20T07:37:13;8.40;99.90
11532;DHT22;5822;51.000;5.874;2022-11-20T07:39:39;8.40;99.90
11532;DHT22;5822;51.000;5.874;2022-11-20T07:42:06;8.50;99.90
11532;DHT22;5822;51.000;5.874;2022-11-20T07:44:31;8.50;99.90
11532;DHT22;5822;51.000;5.874;2022-11-20T07:46:57;8.50;99.90
11532;DHT22;5822;51.000;5.874;2022-11-20T07:49:22;8.50;99.90
11532;DHT22;5822;51.000;5.874;2022-11-20T07:51:50;8.50;99.90
11532;DHT22;5822;51.000;5.874;2022-11-20T07:54:16;8.30;99.90
11532;DHT22;5822;51.000;5.874;2022-11-20T07:56:42;8.10;99.90
11532;DHT22;5822;51.000;5.874;2022-11-20T07:59:10;8.00;99.90
11532;DHT22;5822;51.000;5.874;2022-11-20T08:01:37;8.10;99.90
11532;DHT22;5822;51.000;5.874;2022-11-20T08:04:03;8.30;99.90
11532;DHT22;5822;51.000;5.874;2022-11-20T08:06:29;8.40;99.90
11532;DHT22;5822;51.000;5.874;2022-11-20T08:08:54;8.20;99.90
11532;DHT22;5822;51.000;5.874;2022-11-20T08:11:20;8.20;99.90
11532;DHT22;5822;51.000;5.874;2022-11-20T08:14:04;8.10;99.90
11532;DHT22;5822;51.000;5.874;2022-11-20T08:16:43;8.20;99.90
11532;DHT22;5822;51.000;5.874;2022-11-20T08:19:10;8.10;99.90
11532;DHT22;5822;51.000;5.874;2022-11-20T08:21:36;8.10;99.90
11532;DHT22;5822;51.000;5.874;2022-11-20T08:24:01;8.00;99.90
11532;DHT22;5822;51.000;5.874;2022-11-20T08:26:27;8.00;99.90
11532;DHT22;5822;51.000;5.874;2022-11-20T08:28:54;8.30;99.90
11532;DHT22;5822;51.000;5.874;2022-11-20T08:31:20;8.30;99.90
11532;DHT22;5822;51.000;5.874;2022-11-20T08:33:46;8.10;99.90
11532;DHT22;5822;51.000;5.874;2022-11-20T08:36:11;8.20;99.90
11532;DHT22;5822;51.000;5.874;2022-11-20T08:38:37;8.40;99.90
11532;DHT22;5822;51.000;5.874;2022-11-20T08:41:04;8.60;99.90
11532;DHT22;5822;51.000;5.874;2022-11-20T08:43:50;8.70;99.90
11532;DHT22;5822;51.000;5.874;2022-11-20T08:46:16;8.60;99.90
11532;DHT22;5822;51.000;5.874;2022-11-20T08:48:44;8.50;99.90
11532;DHT22;5822;51.000;5.874;2022-11-20T08:51:10;8.50;99.90
11532;DHT22;5822;51.000;5.874;2022-11-20T08:53:36;8.60;99.90
11532;DHT22;5822;51.000;5.874;2022-11-20T08:56:02;8.80;99.90
11532;DHT22;5822;51.000;5.874;2022-11-20T08:58:27;8.70;99.90
11532;DHT22;5822;51.000;5.874;2022-11-20T09:00:53;8.60;99.90
11532;DHT22;5822;51.000;5.874;2022-11-20T09:03:19;8.70;99.90
11532;DHT22;5822;51.000;5.874;2022-11-20T09:05:44;8.70;99.90
11532;DHT22;5822;51.000;5.874;2022-11-20T09:08:10;8.50;99.90
11532;DHT22;5822;51.000;5.874;2022-11-20T09:10:36;8.50;99.90
11532;DHT22;5822;51.000;5.874;2022-11-20T09:13:02;8.40;99.90
11532;DHT22;5822;51.000;5.874;2022-11-20T09:15:27;8.50;99.90
11532;DHT22;5822;51.000;5.874;2022-11-20T09:17:54;8.70;99.90
11532;DHT22;5822;51.000;5.874;2022-11-20T09:20:21;8.70;99.90
11532;DHT22;5822;51.000;5.874;2022-11-20T09:22:47;8.60;99.90
11532;DHT22;5822;51.000;5.874;2022-11-20T09:25:12;8.60;99.90
11532;DHT22;5822;51.000;5.874;2022-11-20T09:27:38;8.50;99.90
11532;DHT22;5822;51.000;5.874;2022-11-20T09:30:04;8.60;99.90
11532;DHT22;5822;51.000;5.874;2022-11-20T09:32:30;8.50;99.90
11532;DHT22;5822;51.000;5.874;2022-11-20T09:34:56;8.60;99.90
11532;DHT22;5822;51.000;5.874;2022-11-20T09:37:22;8.70;99.90
11532;DHT22;5822;51.000;5.874;2022-11-20T09:39:47;8.70;99.90
11532;DHT22;5822;51.000;5.874;2022-11-20T09:42:24;8.70;99.90
11532;DHT22;5822;51.000;5.874;2022-11-20T09:45:13;8.60;99.90
11532;DHT22;5822;51.000;5.874;2022-11-20T09:50:53;8.70;99.90
11532;DHT22;5822;51.000;5.874;2022-11-20T09:54:04;8.60;99.90
11532;DHT22;5822;51.000;5.874;2022-11-20T09:56:21;8.60;99.90
11532;DHT22;5822;51.000;5.874;2022-11-20T09:58:56;8.80;99.90
11532;DHT22;5822;51.000;5.874;2022-11-20T10:01:26;9.00;99.90
11532;DHT22;5822;51.000;5.874;2022-11-20T10:04:12;9.10;99.90
11532;DHT22;5822;51.000;5.874;2022-11-20T10:06:51;9.10;99.90
11532;DHT22;5822;51.000;5.874;2022-11-20T10:09:36;9.00;99.90
11532;DHT22;5822;51.000;5.874;2022-11-20T10:20:28;8.90;99.90
11532;DHT22;5822;51.000;5.874;2022-11-20T10:23:05;8.90;99.90
11532;DHT22;5822;51.000;5.874;2022-11-20T10:26:02;8.90;99.90
11532;DHT22;5822;51.000;5.874;2022-11-20T10:31:11;9.00;99.90
11532;DHT22;5822;51.000;5.874;2022-11-20T10:33:44;9.20;99.90
11532;DHT22;5822;51.000;5.874;2022-11-20T10:36:24;9.30;99.90
11532;DHT22;5822;51.000;5.874;2022-11-20T10:39:00;9.40;99.90
11532;DHT22;5822;51.000;5.874;2022-11-20T10:41:34;9.20;99.90
11532;DHT22;5822;51.000;5.874;2022-11-20T10:44:09;9.20;99.90
11532;DHT22;5822;51.000;5.874;2022-11-20T10:46:43;9.20;99.90
11532;DHT22;5822;51.000;5.874;2022-11-20T10:49:17;9.10;99.90
11532;DHT22;5822;51.000;5.874;2022-11-20T10:54:36;9.20;99.90
11532;DHT22;5822;51.000;5.874;2022-11-20T11:00:07;9.20;99.90
11532;DHT22;5822;51.000;5.874;2022-11-20T11:02:52;9.20;99.90
11532;DHT22;5822;51.000;5.874;2022-11-20T11:08:03;9.30;99.90
11532;DHT22;5822;51.000;5.874;2022-11-20T11:10:45;9.30;99.90
11532;DHT22;5822;51.000;5.874;2022-11-20T11:13:29;9.30;99.90
11532;DHT22;5822;51.000;5.874;2022-11-20T11:15:56;9.30;99.90
11532;DHT22;5822;51.000;5.874;2022-11-20T11:18:27;9.40;99.90
11532;DHT22;5822;51.000;5.874;2022-11-20T11:20:54;9.40;99.90
11532;DHT22;5822;51.000;5.874;2022-11-20T11:23:42;9.40;99.90
11532;DHT22;5822;51.000;5.874;2022-11-20T11:26:22;9.40;99.90
11532;DHT22;5822;51.000;5.874;2022-11-20T11:28:59;9.50;99.90
11532;DHT22;5822;51.000;5.874;2022-11-20T11:31:29;9.50;99.90
11532;DHT22;5822;51.000;5.874;2022-11-20T11:34:16;9.50;99.90
11532;DHT22;5822;51.000;5.874;2022-11-20T11:36:48;9.50;99.90
11532;DHT22;5822;51.000;5.874;2022-11-20T11:39:16;9.60;99.90
11532;DHT22;5822;51.000;5.874;2022-11-20T11:41:43;9.70;99.90
11532;DHT22;5822;51.000;5.874;2022-11-20T11:44:20;9.70;99.90
11532;DHT22;5822;51.000;5.874;2022-11-20T11:47:10;9.70;99.90
11532;DHT22;5822;51.000;5.874;2022-11-20T11:49:37;9.80;99.90
11532;DHT22;5822;51.000;5.874;2022-11-20T11:52:12;9.90;99.90
11532;DHT22;5822;51.000;5.874;2022-11-20T12:00:09;9.90;99.90
11532;DHT22;5822;51.000;5.874;2022-11-20T12:05:20;10.00;99.90
11532;DHT22;5822;51.000;5.874;2022-11-20T12:13:03;10.10;99.90
11532;DHT22;5822;51.000;5.874;2022-11-20T12:15:31;10.10;99.90
11532;DHT22;5822;51.000;5.874;2022-11-20T12:17:58;10.20;99.90
11532;DHT22;5822;51.000;5.874;2022-11-20T12:20:28;10.30;99.90
11532;DHT22;5822;51.000;5.874;2022-11-20T12:23:09;10.20;99.90
11532;DHT22;5822;51.000;5.874;2022-11-20T12:25:39;10.20;99.90
11532;DHT22;5822;51.000;5.874;2022-11-20T12:34:52;10.40;99.90
11532;DHT22;5822;51.000;5.874;2022-11-20T12:40:44;10.50;99.90
11532;DHT22;5822;51.000;5.874;2022-11-20T13:08:33;11.10;99.90
11532;DHT22;5822;51.000;5.874;2022-11-20T13:11:24;11.10;99.90
11532;DHT22;5822;51.000;5.874;2022-11-20T13:16:51;11.20;99.90
11532;DHT22;5822;51.000;5.874;2022-11-20T13:19:19;11.20;99.90
11532;DHT22;5822;51.000;5.874;2022-11-20T13:21:47;11.20;99.90
11532;DHT22;5822;51.000;5.874;2022-11-20T13:29:42;11.20;99.90
11532;DHT22;5822;51.000;5.874;2022-11-20T13:32:17;11.20;99.90
11532;DHT22;5822;51.000;5.874;2022-11-20T13:34:54;11.20;99.90
11532;DHT22;5822;51.000;5.874;2022-11-20T13:42:37;11.30;99.90
11532;DHT22;5822;51.000;5.874;2022-11-20T13:45:10;11.40;99.90
11532;DHT22;5822;51.000;5.874;2022-11-20T13:47:36;11.40;99.90
11532;DHT22;5822;51.000;5.874;2022-11-20T13:50:04;11.40;99.90
11532;DHT22;5822;51.000;5.874;2022-11-20T14:01:21;11.40;99.90
11532;DHT22;5822;51.000;5.874;2022-11-20T14:03:48;11.40;99.90
11532;DHT22;5822;51.000;5.874;2022-11-20T14:06:28;11.50;99.90
11532;DHT22;5822;51.000;5.874;2022-11-20T14:08:55;11.40;99.90
11532;DHT22;5822;51.000;5.874;2022-11-20T14:11:47;11.40;99.90
11532;DHT22;5822;51.000;5.874;2022-11-20T14:16:40;11.20;99.90
11532;DHT22;5822;51.000;5.874;2022-11-20T14:19:28;11.10;99.90
11532;DHT22;5822;51.000;5.874;2022-11-20T14:24:35;11.00;99.90
11532;DHT22;5822;51.000;5.874;2022-11-20T14:27:00;10.90;99.90
11532;DHT22;5822;51.000;5.874;2022-11-20T14:29:29;10.80;99.90
11532;DHT22;5822;51.000;5.874;2022-11-20T14:31:56;10.90;99.90
11532;DHT22;5822;51.000;5.874;2022-11-20T14:34:25;10.80;99.90
11532;DHT22;5822;51.000;5.874;2022-11-20T14:36:55;10.80;99.90
11532;DHT22;5822;51.000;5.874;2022-11-20T14:39:28;10.70;99.90
11532;DHT22;5822;51.000;5.874;2022-11-20T14:41:55;10.60;99.90
11532;DHT22;5822;51.000;5.874;2022-11-20T14:44:26;10.60;99.90
11532;DHT22;5822;51.000;5.874;2022-11-20T14:46:52;10.50;99.90
11532;DHT22;5822;51.000;5.874;2022-11-20T14:49:19;10.50;99.90
11532;DHT22;5822;51.000;5.874;2022-11-20T14:51:46;10.50;99.90
11532;DHT22;5822;51.000;5.874;2022-11-20T14:56:40;10.40;99.90
11532;DHT22;5822;51.000;5.874;2022-11-20T14:59:07;10.40;99.90
11532;DHT22;5822;51.000;5.874;2022-11-20T15:01:33;10.40;99.90
11532;DHT22;5822;51.000;5.874;2022-11-20T15:04:10;10.30;99.90
11532;DHT22;5822;51.000;5.874;2022-11-20T15:06:37;10.30;99.90
11532;DHT22;5822;51.000;5.874;2022-11-20T15:09:04;10.30;99.90
11532;DHT22;5822;51.000;5.874;2022-11-20T15:11:33;10.30;99.90
11532;DHT22;5822;51.000;5.874;2022-11-20T15:14:05;10.20;99.90
11532;DHT22;5822;51.000;5.874;2022-11-20T15:16:31;10.20;99.90
11532;DHT22;5822;51.000;5.874;2022-11-20T15:18:57;10.20;99.90
11532;DHT22;5822;51.000;5.874;2022-11-20T15:21:23;10.20;99.90
11532;DHT22;5822;51.000;5.874;2022-11-20T15:23:50;10.10;99.90
11532;DHT22;5822;51.000;5.874;2022-11-20T15:26:26;10.10;99.90
11532;DHT22;5822;51.000;5.874;2022-11-20T15:28:52;10.10;99.90
11532;DHT22;5822;51.000;5.874;2022-11-20T15:31:21;10.10;99.90
11532;DHT22;5822;51.000;5.874;2022-11-20T15:33:47;10.10;99.90
11532;DHT22;5822;51.000;5.874;2022-11-20T15:36:13;10.10;99.90
11532;DHT22;5822;51.000;5.874;2022-11-20T15:38:39;10.10;99.90
11532;DHT22;5822;51.000;5.874;2022-11-20T15:41:05;10.00;99.90
11532;DHT22;5822;51.000;5.874;2022-11-20T15:43:31;10.00;99.90
11532;DHT22;5822;51.000;5.874;2022-11-20T15:46:15;10.00;99.90
11532;DHT22;5822;51.000;5.874;2022-11-20T15:48:42;9.90;99.90
11532;DHT22;5822;51.000;5.874;2022-11-20T15:53:37;10.00;99.90
11532;DHT22;5822;51.000;5.874;2022-11-20T15:56:03;9.90;99.90
11532;DHT22;5822;51.000;5.874;2022-11-20T15:58:29;9.90;99.90
11532;DHT22;5822;51.000;5.874;2022-11-20T16:00:55;9.90;99.90
11532;DHT22;5822;51.000;5.874;2022-11-20T16:03:24;9.90;99.90
11532;DHT22;5822;51.000;5.874;2022-11-20T16:05:50;9.80;99.90
11532;DHT22;5822;51.000;5.874;2022-11-20T16:08:16;9.80;99.90
11532;DHT22;5822;51.000;5.874;2022-11-20T16:10:41;9.80;99.90
11532;DHT22;5822;51.000;5.874;2022-11-20T16:13:15;9.80;99.90
11532;DHT22;5822;51.000;5.874;2022-11-20T16:16:02;9.80;99.90
11532;DHT22;5822;51.000;5.874;2022-11-20T16:18:30;9.80;99.90
11532;DHT22;5822;51.000;5.874;2022-11-20T16:20:56;9.90;99.90
11532;DHT22;5822;51.000;5.874;2022-11-20T16:23:22;9.90;99.90
11532;DHT22;5822;51.000;5.874;2022-11-20T16:25:48;9.90;99.90
11532;DHT22;5822;51.000;5.874;2022-11-20T16:28:14;10.00;99.90
11532;DHT22;5822;51.000;5.874;2022-11-20T16:30:40;10.00;99.90
11532;DHT22;5822;51.000;5.874;2022-11-20T16:33:10;10.00;99.90
11532;DHT22;5822;51.000;5.874;2022-11-20T16:35:37;10.00;99.90
11532;DHT22;5822;51.000;5.874;2022-11-20T16:38:03;10.10;99.90
11532;DHT22;5822;51.000;5.874;2022-11-20T16:40:28;10.10;99.90
11532;DHT22;5822;51.000;5.874;2022-11-20T16:42:54;10.00;99.90
11532;DHT22;5822;51.000;5.874;2022-11-20T16:45:20;10.00;99.90
11532;DHT22;5822;51.000;5.874;2022-11-20T16:47:46;10.10;99.90
11532;DHT22;5822;51.000;5.874;2022-11-20T16:50:11;10.10;99.90
11532;DHT22;5822;51.000;5.874;2022-11-20T16:52:37;10.10;99.90
11532;DHT22;5822;51.000;5.874;2022-11-20T16:55:03;10.10;99.90
11532;DHT22;5822;51.000;5.874;2022-11-20T16:57:30;10.10;99.90
11532;DHT22;5822;51.000;5.874;2022-11-20T16:59:58;10.10;99.90
11532;DHT22;5822;51.000;5.874;2022-11-20T17:02:27;10.20;99.90
11532;DHT22;5822;51.000;5.874;2022-11-20T17:04:52;10.20;99.90
11532;DHT22;5822;51.000;5.874;2022-11-20T17:07:18;10.20;99.90
11532;DHT22;5822;51.000;5.874;2022-11-20T17:09:44;10.20;99.90
11532;DHT22;5822;51.000;5.874;2022-11-20T17:12:09;10.20;99.90
11532;DHT22;5822;51.000;5.874;2022-11-20T17:14:35;10.20;99.90
11532;DHT22;5822;51.000;5.874;2022-11-20T17:17:02;10.20;99.90
11532;DHT22;5822;51.000;5.874;2022-11-20T17:19:27;10.30;99.90
11532;DHT22;5822;51.000;5.874;2022-11-20T17:21:53;10.20;99.90
11532;DHT22;5822;51.000;5.874;2022-11-20T17:24:19;10.30;99.90
11532;DHT22;5822;51.000;5.874;2022-11-20T17:26:47;10.30;99.90
11532;DHT22;5822;51.000;5.874;2022-11-20T17:29:14;10.20;99.90
11532;DHT22;5822;51.000;5.874;2022-11-20T17:31:41;10.30;99.90
11532;DHT22;5822;51.000;5.874;2022-11-20T17:34:09;10.30;99.90
11532;DHT22;5822;51.000;5.874;2022-11-20T17:36:35;10.30;99.90
11532;DHT22;5822;51.000;5.874;2022-11-20T17:39:01;10.30;99.90
11532;DHT22;5822;51.000;5.874;2022-11-20T17:41:28;10.40;99.90
11532;DHT22;5822;51.000;5.874;2022-11-20T17:43:55;10.40;99.90
11532;DHT22;5822;51.000;5.874;2022-11-20T17:46:24;10.40;99.90
11532;DHT22;5822;51.000;5.874;2022-11-20T17:48:50;10.40;99.90
11532;DHT22;5822;51.000;5.874;2022-11-20T17:51:18;10.40;99.90
11532;DHT22;5822;51.000;5.874;2022-11-20T17:53:47;10.40;99.90
11532;DHT22;5822;51.000;5.874;2022-11-20T17:56:13;10.50;99.90
11532;DHT22;5822;51.000;5.874;2022-11-20T17:58:58;10.50;99.90